sensor_id;sensor_type;location;lat;lon;timestamp;temperature;humidity
71082;SHT31;58740;50.672;18.690;2023-07-09T00:02:13;18.45;62.03
71082;SHT31;58740;50.672;18.690;2023-07-09T00:04:42;18.43;62.09
71082;SHT31;58740;50.672;18.690;2023-07-09T00:07:22;18.41;62.02
71082;SHT31;58740;50.672;18.690;2023-07-09T00:09:55;18.40;62.04
71082;SHT31;58740;50.672;18.690;2023-07-09T00:12:24;18.39;61.91
71082;SHT31;58740;50.672;18.690;2023-07-09T00:14:53;18.35;61.92
71082;SHT31;58740;50.672;18.690;2023-07-09T00:17:32;18.34;61.91
71082;SHT31;58740;50.672;18.690;2023-07-09T00:20:02;18.33;61.94
71082;SHT31;58740;50.672;18.690;2023-07-09T00:22:39;18.27;62.14
71082;SHT31;58740;50.672;18.690;2023-07-09T00:25:15;18.17;62.38
71082;SHT31;58740;50.672;18.690;2023-07-09T00:27:44;18.11;62.28
71082;SHT31;58740;50.672;18.690;2023-07-09T00:30:16;18.09;62.28
71082;SHT31;58740;50.672;18.690;2023-07-09T00:32:50;18.07;62.21
71082;SHT31;58740;50.672;18.690;2023-07-09T00:35:20;18.03;62.25
71082;SHT31;58740;50.672;18.690;2023-07-09T00:37:51;18.01;61.96
71082;SHT31;58740;50.672;18.690;2023-07-09T00:40:20;18.02;61.95
71082;SHT31;58740;50.672;18.690;2023-07-09T00:42:52;17.99;62.07
71082;SHT31;58740;50.672;18.690;2023-07-09T00:45:23;17.99;62.19
71082;SHT31;58740;50.672;18.690;2023-07-09T00:47:56;17.96;62.19
71082;SHT31;58740;50.672;18.690;2023-07-09T00:50:49;17.95;62.12
71082;SHT31;58740;50.672;18.690;2023-07-09T00:53:23;17.93;62.12
71082;SHT31;58740;50.672;18.690;2023-07-09T00:56:02;17.90;62.15
71082;SHT31;58740;50.672;18.690;2023-07-09T00:58:37;17.89;62.01
71082;SHT31;58740;50.672;18.690;2023-07-09T01:01:08;17.85;62.11
71082;SHT31;58740;50.672;18.690;2023-07-09T01:03:41;17.84;62.19
71082;SHT31;58740;50.672;18.690;2023-07-09T01:06:15;17.82;62.39
71082;SHT31;58740;50.672;18.690;2023-07-09T01:08:53;17.79;62.63
71082;SHT31;58740;50.672;18.690;2023-07-09T01:11:22;17.74;62.74
71082;SHT31;58740;50.672;18.690;2023-07-09T01:13:54;17.70;62.88
71082;SHT31;58740;50.672;18.690;2023-07-09T01:16:27;17.69;62.89
71082;SHT31;58740;50.672;18.690;2023-07-09T01:19:01;17.66;62.92
71082;SHT31;58740;50.672;18.690;2023-07-09T01:21:31;17.63;63.01
71082;SHT31;58740;50.672;18.690;2023-07-09T01:24:11;17.61;63.04
71082;SHT31;58740;50.672;18.690;2023-07-09T01:26:42;17.57;63.26
71082;SHT31;58740;50.672;18.690;2023-07-09T01:29:11;17.50;63.40
71082;SHT31;58740;50.672;18.690;2023-07-09T01:31:39;17.45;63.57
71082;SHT31;58740;50.672;18.690;2023-07-09T01:34:08;17.41;63.88
71082;SHT31;58740;50.672;18.690;2023-07-09T01:36:40;17.37;64.04
71082;SHT31;58740;50.672;18.690;2023-07-09T01:39:08;17.40;64.03
71082;SHT31;58740;50.672;18.690;2023-07-09T01:41:37;17.43;64.04
71082;SHT31;58740;50.672;18.690;2023-07-09T01:44:05;17.43;63.96
71082;SHT31;58740;50.672;18.690;2023-07-09T01:46:38;17.40;63.92
71082;SHT31;58740;50.672;18.690;2023-07-09T01:49:15;17.37;64.06
71082;SHT31;58740;50.672;18.690;2023-07-09T01:51:44;17.35;64.05
71082;SHT31;58740;50.672;18.690;2023-07-09T01:54:14;17.34;64.15
71082;SHT31;58740;50.672;18.690;2023-07-09T01:56:44;17.33;64.18
71082;SHT31;58740;50.672;18.690;2023-07-09T01:59:12;17.30;64.25
71082;SHT31;58740;50.672;18.690;2023-07-09T02:01:41;17.25;64.34
71082;SHT31;58740;50.672;18.690;2023-07-09T02:04:09;17.26;64.36
71082;SHT31;58740;50.672;18.690;2023-07-09T02:06:38;17.25;64.42
71082;SHT31;58740;50.672;18.690;2023-07-09T02:09:06;17.19;64.67
71082;SHT31;58740;50.672;18.690;2023-07-09T02:11:33;17.17;64.72
71082;SHT31;58740;50.672;18.690;2023-07-09T02:14:01;17.15;64.70
71082;SHT31;58740;50.672;18.690;2023-07-09T02:16:29;17.14;64.75
71082;SHT31;58740;50.672;18.690;2023-07-09T02:18:57;17.14;64.98
71082;SHT31;58740;50.672;18.690;2023-07-09T02:21:24;17.12;65.11
71082;SHT31;58740;50.672;18.690;2023-07-09T02:23:57;17.11;65.07
71082;SHT31;58740;50.672;18.690;2023-07-09T02:26:24;17.11;65.03
71082;SHT31;58740;50.672;18.690;2023-07-09T02:28:52;17.09;64.99
71082;SHT31;58740;50.672;18.690;2023-07-09T02:31:20;17.08;64.93
71082;SHT31;58740;50.672;18.690;2023-07-09T02:33:48;17.05;65.05
71082;SHT31;58740;50.672;18.690;2023-07-09T02:36:18;17.01;65.07
71082;SHT31;58740;50.672;18.690;2023-07-09T02:38:45;16.97;65.01
71082;SHT31;58740;50.672;18.690;2023-07-09T02:41:14;16.94;65.15
71082;SHT31;58740;50.672;18.690;2023-07-09T02:43:41;16.92;65.35
71082;SHT31;58740;50.672;18.690;2023-07-09T02:46:09;16.93;65.39
71082;SHT31;58740;50.672;18.690;2023-07-09T02:48:37;16.93;65.57
71082;SHT31;58740;50.672;18.690;2023-07-09T02:51:05;16.92;65.76
71082;SHT31;58740;50.672;18.690;2023-07-09T02:53:33;16.91;65.82
71082;SHT31;58740;50.672;18.690;2023-07-09T02:56:01;16.93;65.84
71082;SHT31;58740;50.672;18.690;2023-07-09T02:58:33;16.92;65.86
71082;SHT31;58740;50.672;18.690;2023-07-09T03:01:01;16.93;65.85
71082;SHT31;58740;50.672;18.690;2023-07-09T03:03:41;16.90;65.90
71082;SHT31;58740;50.672;18.690;2023-07-09T03:06:18;16.88;66.08
71082;SHT31;58740;50.672;18.690;2023-07-09T03:09:20;16.87;66.25
71082;SHT31;58740;50.672;18.690;2023-07-09T03:12:12;16.85;66.18
71082;SHT31;58740;50.672;18.690;2023-07-09T03:14:56;16.84;66.00
71082;SHT31;58740;50.672;18.690;2023-07-09T03:17:48;16.84;65.99
71082;SHT31;58740;50.672;18.690;2023-07-09T03:20:56;16.83;66.09
71082;SHT31;58740;50.672;18.690;2023-07-09T03:23:26;16.82;66.18
71082;SHT31;58740;50.672;18.690;2023-07-09T03:25:54;16.82;66.17
71082;SHT31;58740;50.672;18.690;2023-07-09T03:28:25;16.85;65.98
71082;SHT31;58740;50.672;18.690;2023-07-09T03:30:54;16.87;65.54
71082;SHT31;58740;50.672;18.690;2023-07-09T03:33:46;16.85;65.14
71082;SHT31;58740;50.672;18.690;2023-07-09T03:36:16;16.82;65.33
71082;SHT31;58740;50.672;18.690;2023-07-09T03:38:47;16.78;65.63
71082;SHT31;58740;50.672;18.690;2023-07-09T03:41:17;16.77;65.62
71082;SHT31;58740;50.672;18.690;2023-07-09T03:44:27;16.77;65.55
71082;SHT31;58740;50.672;18.690;2023-07-09T03:47:15;16.82;65.78
71082;SHT31;58740;50.672;18.690;2023-07-09T03:50:04;16.85;65.93
71082;SHT31;58740;50.672;18.690;2023-07-09T03:52:52;16.87;66.28
71082;SHT31;58740;50.672;18.690;2023-07-09T03:56:04;16.91;65.73
71082;SHT31;58740;50.672;18.690;2023-07-09T03:58:32;16.95;65.46
71082;SHT31;58740;50.672;18.690;2023-07-09T04:01:00;17.04;65.31
71082;SHT31;58740;50.672;18.690;2023-07-09T04:03:30;17.08;65.09
71082;SHT31;58740;50.672;18.690;2023-07-09T04:06:21;17.13;65.00
71082;SHT31;58740;50.672;18.690;2023-07-09T04:08:49;17.18;65.05
71082;SHT31;58740;50.672;18.690;2023-07-09T04:11:17;17.26;65.20
71082;SHT31;58740;50.672;18.690;2023-07-09T04:13:49;17.32;65.17
71082;SHT31;58740;50.672;18.690;2023-07-09T04:16:17;17.38;65.15
71082;SHT31;58740;50.672;18.690;2023-07-09T04:18:45;17.46;65.27
71082;SHT31;58740;50.672;18.690;2023-07-09T04:21:12;17.54;65.44
71082;SHT31;58740;50.672;18.690;2023-07-09T04:23:40;17.61;65.86
71082;SHT31;58740;50.672;18.690;2023-07-09T04:26:11;17.69;65.50
71082;SHT31;58740;50.672;18.690;2023-07-09T04:28:41;17.79;65.30
71082;SHT31;58740;50.672;18.690;2023-07-09T04:31:09;17.85;65.72
71082;SHT31;58740;50.672;18.690;2023-07-09T04:33:37;17.93;65.36
71082;SHT31;58740;50.672;18.690;2023-07-09T04:36:05;18.02;65.70
71082;SHT31;58740;50.672;18.690;2023-07-09T04:38:34;18.09;65.36
71082;SHT31;58740;50.672;18.690;2023-07-09T04:41:02;18.19;65.20
71082;SHT31;58740;50.672;18.690;2023-07-09T04:43:30;18.29;64.98
71082;SHT31;58740;50.672;18.690;2023-07-09T04:45:59;18.37;64.84
71082;SHT31;58740;50.672;18.690;2023-07-09T04:48:27;18.46;65.00
71082;SHT31;58740;50.672;18.690;2023-07-09T04:50:55;18.53;64.99
71082;SHT31;58740;50.672;18.690;2023-07-09T04:53:28;18.62;64.73
71082;SHT31;58740;50.672;18.690;2023-07-09T04:55:56;18.73;64.53
71082;SHT31;58740;50.672;18.690;2023-07-09T04:58:24;18.84;64.51
71082;SHT31;58740;50.672;18.690;2023-07-09T05:00:52;18.95;64.08
71082;SHT31;58740;50.672;18.690;2023-07-09T05:03:24;19.06;63.83
71082;SHT31;58740;50.672;18.690;2023-07-09T05:05:53;19.19;63.65
71082;SHT31;58740;50.672;18.690;2023-07-09T05:08:20;19.29;63.59
71082;SHT31;58740;50.672;18.690;2023-07-09T05:10:50;19.39;63.34
71082;SHT31;58740;50.672;18.690;2023-07-09T05:13:20;19.50;63.23
71082;SHT31;58740;50.672;18.690;2023-07-09T05:15:48;19.61;63.16
71082;SHT31;58740;50.672;18.690;2023-07-09T05:18:16;19.71;62.59
71082;SHT31;58740;50.672;18.690;2023-07-09T05:20:46;19.83;62.57
71082;SHT31;58740;50.672;18.690;2023-07-09T05:23:15;19.92;62.52
71082;SHT31;58740;50.672;18.690;2023-07-09T05:25:44;20.03;62.44
71082;SHT31;58740;50.672;18.690;2023-07-09T05:28:52;20.16;62.42
71082;SHT31;58740;50.672;18.690;2023-07-09T05:31:47;20.29;62.08
71082;SHT31;58740;50.672;18.690;2023-07-09T05:34:47;20.40;62.10
71082;SHT31;58740;50.672;18.690;2023-07-09T05:37:15;20.51;62.15
71082;SHT31;58740;50.672;18.690;2023-07-09T05:39:46;20.62;61.88
71082;SHT31;58740;50.672;18.690;2023-07-09T05:42:14;20.74;61.35
71082;SHT31;58740;50.672;18.690;2023-07-09T05:44:43;20.85;61.42
71082;SHT31;58740;50.672;18.690;2023-07-09T05:47:46;20.97;61.28
71082;SHT31;58740;50.672;18.690;2023-07-09T05:50:14;21.08;60.87
71082;SHT31;58740;50.672;18.690;2023-07-09T05:52:44;21.21;60.24
71082;SHT31;58740;50.672;18.690;2023-07-09T05:55:32;21.35;59.35
71082;SHT31;58740;50.672;18.690;2023-07-09T05:58:01;21.49;59.72
71082;SHT31;58740;50.672;18.690;2023-07-09T06:00:54;21.66;59.37
71082;SHT31;58740;50.672;18.690;2023-07-09T06:03:25;21.84;58.67
71082;SHT31;58740;50.672;18.690;2023-07-09T06:05:55;22.02;58.70
71082;SHT31;58740;50.672;18.690;2023-07-09T06:08:34;22.20;58.90
71082;SHT31;58740;50.672;18.690;2023-07-09T06:11:04;22.38;57.62
71082;SHT31;58740;50.672;18.690;2023-07-09T06:13:39;22.55;56.19
71082;SHT31;58740;50.672;18.690;2023-07-09T06:16:08;22.70;55.99
71082;SHT31;58740;50.672;18.690;2023-07-09T06:18:36;22.88;55.65
71082;SHT31;58740;50.672;18.690;2023-07-09T06:21:04;23.05;56.02
71082;SHT31;58740;50.672;18.690;2023-07-09T06:23:32;23.20;56.70
71082;SHT31;58740;50.672;18.690;2023-07-09T06:25:59;23.34;55.27
71082;SHT31;58740;50.672;18.690;2023-07-09T06:28:28;23.48;55.91
71082;SHT31;58740;50.672;18.690;2023-07-09T06:30:58;23.62;55.69
71082;SHT31;58740;50.672;18.690;2023-07-09T06:33:27;23.77;55.28
71082;SHT31;58740;50.672;18.690;2023-07-09T06:35:56;23.91;55.27
71082;SHT31;58740;50.672;18.690;2023-07-09T06:38:28;24.04;54.04
71082;SHT31;58740;50.672;18.690;2023-07-09T06:40:57;24.16;54.42
71082;SHT31;58740;50.672;18.690;2023-07-09T06:43:25;24.31;54.37
71082;SHT31;58740;50.672;18.690;2023-07-09T06:45:57;24.46;54.59
71082;SHT31;58740;50.672;18.690;2023-07-09T06:48:29;24.57;53.56
71082;SHT31;58740;50.672;18.690;2023-07-09T06:50:58;24.71;52.47
71082;SHT31;58740;50.672;18.690;2023-07-09T06:53:28;24.83;52.24
71082;SHT31;58740;50.672;18.690;2023-07-09T06:55:57;24.94;51.73
71082;SHT31;58740;50.672;18.690;2023-07-09T06:58:28;25.06;49.66
71082;SHT31;58740;50.672;18.690;2023-07-09T07:01:01;25.16;48.24
71082;SHT31;58740;50.672;18.690;2023-07-09T07:03:32;25.28;47.80
71082;SHT31;58740;50.672;18.690;2023-07-09T07:06:02;25.41;48.21
71082;SHT31;58740;50.672;18.690;2023-07-09T07:08:31;25.52;48.28
71082;SHT31;58740;50.672;18.690;2023-07-09T07:11:01;25.59;47.51
71082;SHT31;58740;50.672;18.690;2023-07-09T07:13:33;25.70;47.88
71082;SHT31;58740;50.672;18.690;2023-07-09T07:16:07;25.82;46.93
71082;SHT31;58740;50.672;18.690;2023-07-09T07:18:41;25.88;46.81
71082;SHT31;58740;50.672;18.690;2023-07-09T07:21:09;25.96;46.58
71082;SHT31;58740;50.672;18.690;2023-07-09T07:23:37;26.05;45.90
71082;SHT31;58740;50.672;18.690;2023-07-09T07:26:04;26.13;46.12
71082;SHT31;58740;50.672;18.690;2023-07-09T07:28:36;26.20;45.58
71082;SHT31;58740;50.672;18.690;2023-07-09T07:31:08;26.28;45.16
71082;SHT31;58740;50.672;18.690;2023-07-09T07:33:38;26.35;46.48
71082;SHT31;58740;50.672;18.690;2023-07-09T07:36:09;26.44;46.37
71082;SHT31;58740;50.672;18.690;2023-07-09T07:38:40;26.51;44.42
71082;SHT31;58740;50.672;18.690;2023-07-09T07:41:08;26.56;44.27
71082;SHT31;58740;50.672;18.690;2023-07-09T07:43:36;26.61;44.16
71082;SHT31;58740;50.672;18.690;2023-07-09T07:46:04;26.69;43.93
71082;SHT31;58740;50.672;18.690;2023-07-09T07:48:32;26.75;44.06
71082;SHT31;58740;50.672;18.690;2023-07-09T07:51:01;26.80;45.14
71082;SHT31;58740;50.672;18.690;2023-07-09T07:53:30;26.86;44.28
71082;SHT31;58740;50.672;18.690;2023-07-09T07:55:59;26.89;43.65
71082;SHT31;58740;50.672;18.690;2023-07-09T07:58:31;26.94;43.26
71082;SHT31;58740;50.672;18.690;2023-07-09T08:00:59;26.98;42.79
71082;SHT31;58740;50.672;18.690;2023-07-09T08:03:27;27.00;41.68
71082;SHT31;58740;50.672;18.690;2023-07-09T08:05:55;27.03;41.86
71082;SHT31;58740;50.672;18.690;2023-07-09T08:08:28;27.08;41.71
71082;SHT31;58740;50.672;18.690;2023-07-09T08:11:00;27.11;41.41
71082;SHT31;58740;50.672;18.690;2023-07-09T08:13:35;27.13;42.18
71082;SHT31;58740;50.672;18.690;2023-07-09T08:16:05;27.16;41.09
71082;SHT31;58740;50.672;18.690;2023-07-09T08:18:34;27.16;40.89
71082;SHT31;58740;50.672;18.690;2023-07-09T08:21:04;27.15;40.76
71082;SHT31;58740;50.672;18.690;2023-07-09T08:23:32;27.20;40.55
71082;SHT31;58740;50.672;18.690;2023-07-09T08:26:01;27.24;40.48
71082;SHT31;58740;50.672;18.690;2023-07-09T08:28:31;27.28;41.00
71082;SHT31;58740;50.672;18.690;2023-07-09T08:31:02;27.31;40.34
71082;SHT31;58740;50.672;18.690;2023-07-09T08:33:31;27.35;40.38
71082;SHT31;58740;50.672;18.690;2023-07-09T08:35:59;27.37;39.39
71082;SHT31;58740;50.672;18.690;2023-07-09T08:38:27;27.39;39.21
71082;SHT31;58740;50.672;18.690;2023-07-09T08:40:59;27.45;38.78
71082;SHT31;58740;50.672;18.690;2023-07-09T08:49:20;27.55;38.10
71082;SHT31;58740;50.672;18.690;2023-07-09T08:52:47;27.60;37.63
71082;SHT31;58740;50.672;18.690;2023-07-09T08:55:15;27.64;38.02
71082;SHT31;58740;50.672;18.690;2023-07-09T08:57:52;27.67;37.31
71082;SHT31;58740;50.672;18.690;2023-07-09T09:00:34;27.69;36.41
71082;SHT31;58740;50.672;18.690;2023-07-09T09:03:23;27.72;36.14
71082;SHT31;58740;50.672;18.690;2023-07-09T09:06:03;27.74;36.79
71082;SHT31;58740;50.672;18.690;2023-07-09T09:11:37;27.80;35.69
71082;SHT31;58740;50.672;18.690;2023-07-09T09:15:03;27.83;36.68
71082;SHT31;58740;50.672;18.690;2023-07-09T09:17:14;27.84;36.87
71082;SHT31;58740;50.672;18.690;2023-07-09T09:19:54;27.88;36.99
71082;SHT31;58740;50.672;18.690;2023-07-09T09:22:30;27.92;37.76
71082;SHT31;58740;50.672;18.690;2023-07-09T09:25:27;27.95;37.50
71082;SHT31;58740;50.672;18.690;2023-07-09T09:28:01;27.93;37.02
71082;SHT31;58740;50.672;18.690;2023-07-09T09:30:30;27.94;37.40
71082;SHT31;58740;50.672;18.690;2023-07-09T09:33:07;27.94;37.00
71082;SHT31;58740;50.672;18.690;2023-07-09T09:35:41;27.92;37.13
71082;SHT31;58740;50.672;18.690;2023-07-09T09:38:13;27.92;36.73
71082;SHT31;58740;50.672;18.690;2023-07-09T09:40:50;27.93;36.49
71082;SHT31;58740;50.672;18.690;2023-07-09T09:43:41;27.95;36.52
71082;SHT31;58740;50.672;18.690;2023-07-09T09:46:17;27.97;36.81
71082;SHT31;58740;50.672;18.690;2023-07-09T09:48:49;28.01;36.52
71082;SHT31;58740;50.672;18.690;2023-07-09T09:51:43;28.05;37.32
71082;SHT31;58740;50.672;18.690;2023-07-09T09:54:16;28.09;36.47
71082;SHT31;58740;50.672;18.690;2023-07-09T09:56:53;28.10;36.56
71082;SHT31;58740;50.672;18.690;2023-07-09T09:59:27;28.11;36.52
71082;SHT31;58740;50.672;18.690;2023-07-09T10:02:02;28.17;35.59
71082;SHT31;58740;50.672;18.690;2023-07-09T10:04:52;28.18;36.21
71082;SHT31;58740;50.672;18.690;2023-07-09T10:09:57;28.13;37.05
71082;SHT31;58740;50.672;18.690;2023-07-09T10:18:27;28.28;35.54
71082;SHT31;58740;50.672;18.690;2023-07-09T10:21:14;28.31;34.94
71082;SHT31;58740;50.672;18.690;2023-07-09T10:24:09;28.26;34.72
71082;SHT31;58740;50.672;18.690;2023-07-09T10:27:53;28.14;35.08
71082;SHT31;58740;50.672;18.690;2023-07-09T10:33:48;28.03;34.65
71082;SHT31;58740;50.672;18.690;2023-07-09T10:39:42;28.06;34.13
71082;SHT31;58740;50.672;18.690;2023-07-09T10:42:28;28.05;34.98
71082;SHT31;58740;50.672;18.690;2023-07-09T10:48:01;27.98;34.45
71082;SHT31;58740;50.672;18.690;2023-07-09T10:50:39;27.98;34.30
71082;SHT31;58740;50.672;18.690;2023-07-09T10:53:29;28.02;34.07
71082;SHT31;58740;50.672;18.690;2023-07-09T10:56:16;28.11;34.19
71082;SHT31;58740;50.672;18.690;2023-07-09T11:01:27;28.15;34.12
71082;SHT31;58740;50.672;18.690;2023-07-09T11:04:08;28.21;34.59
71082;SHT31;58740;50.672;18.690;2023-07-09T11:06:58;28.30;34.11
71082;SHT31;58740;50.672;18.690;2023-07-09T11:09:37;28.36;33.64
71082;SHT31;58740;50.672;18.690;2023-07-09T11:12:14;28.41;32.84
71082;SHT31;58740;50.672;18.690;2023-07-09T11:14:51;28.50;33.45
71082;SHT31;58740;50.672;18.690;2023-07-09T11:17:26;28.52;33.59
71082;SHT31;58740;50.672;18.690;2023-07-09T11:19:58;28.49;33.54
71082;SHT31;58740;50.672;18.690;2023-07-09T11:22:38;28.49;33.05
71082;SHT31;58740;50.672;18.690;2023-07-09T11:25:12;28.51;33.32
71082;SHT31;58740;50.672;18.690;2023-07-09T11:28:00;28.55;32.36
71082;SHT31;58740;50.672;18.690;2023-07-09T11:30:32;28.58;32.29
71082;SHT31;58740;50.672;18.690;2023-07-09T11:33:01;28.64;33.56
71082;SHT31;58740;50.672;18.690;2023-07-09T11:35:52;28.70;33.80
71082;SHT31;58740;50.672;18.690;2023-07-09T11:38:43;28.76;33.70
71082;SHT31;58740;50.672;18.690;2023-07-09T11:44:20;28.80;33.30
71082;SHT31;58740;50.672;18.690;2023-07-09T11:49:59;28.75;34.49
71082;SHT31;58740;50.672;18.690;2023-07-09T11:52:37;28.75;33.85
71082;SHT31;58740;50.672;18.690;2023-07-09T11:55:22;28.75;34.15
71082;SHT31;58740;50.672;18.690;2023-07-09T11:58:09;28.77;34.06
71082;SHT31;58740;50.672;18.690;2023-07-09T12:00:41;28.80;33.64
71082;SHT31;58740;50.672;18.690;2023-07-09T12:03:24;28.79;33.19
71082;SHT31;58740;50.672;18.690;2023-07-09T12:06:01;28.76;33.64
71082;SHT31;58740;50.672;18.690;2023-07-09T12:08:56;28.70;33.05
71082;SHT31;58740;50.672;18.690;2023-07-09T12:11:29;28.65;32.62
71082;SHT31;58740;50.672;18.690;2023-07-09T12:14:04;28.66;32.39
71082;SHT31;58740;50.672;18.690;2023-07-09T12:16:45;28.69;31.96
71082;SHT31;58740;50.672;18.690;2023-07-09T12:19:20;28.71;31.83
71082;SHT31;58740;50.672;18.690;2023-07-09T12:21:53;28.75;31.95
71082;SHT31;58740;50.672;18.690;2023-07-09T12:24:49;28.80;31.94
71082;SHT31;58740;50.672;18.690;2023-07-09T12:27:23;28.83;31.65
71082;SHT31;58740;50.672;18.690;2023-07-09T12:29:56;28.84;31.35
71082;SHT31;58740;50.672;18.690;2023-07-09T12:32:25;28.84;31.22
71082;SHT31;58740;50.672;18.690;2023-07-09T12:34:55;28.86;30.66
71082;SHT31;58740;50.672;18.690;2023-07-09T12:37:24;28.87;30.77
71082;SHT31;58740;50.672;18.690;2023-07-09T12:39:59;28.88;31.72
71082;SHT31;58740;50.672;18.690;2023-07-09T12:42:33;28.90;30.99
71082;SHT31;58740;50.672;18.690;2023-07-09T12:45:05;28.91;30.40
71082;SHT31;58740;50.672;18.690;2023-07-09T12:47:43;28.90;30.67
71082;SHT31;58740;50.672;18.690;2023-07-09T12:50:17;28.91;31.59
71082;SHT31;58740;50.672;18.690;2023-07-09T12:53:13;28.94;31.97
71082;SHT31;58740;50.672;18.690;2023-07-09T12:55:45;29.01;32.31
71082;SHT31;58740;50.672;18.690;2023-07-09T12:58:28;29.05;31.68
71082;SHT31;58740;50.672;18.690;2023-07-09T13:01:21;29.07;30.96
71082;SHT31;58740;50.672;18.690;2023-07-09T13:03:54;29.07;30.63
71082;SHT31;58740;50.672;18.690;2023-07-09T13:06:28;29.05;30.67
71082;SHT31;58740;50.672;18.690;2023-07-09T13:09:05;29.07;30.57
71082;SHT31;58740;50.672;18.690;2023-07-09T13:11:42;29.09;30.95
71082;SHT31;58740;50.672;18.690;2023-07-09T13:14:17;29.11;30.96
71082;SHT31;58740;50.672;18.690;2023-07-09T13:17:04;29.11;31.00
71082;SHT31;58740;50.672;18.690;2023-07-09T13:19:35;29.09;31.62
71082;SHT31;58740;50.672;18.690;2023-07-09T13:22:04;29.08;31.76
71082;SHT31;58740;50.672;18.690;2023-07-09T13:24:32;29.11;31.44
71082;SHT31;58740;50.672;18.690;2023-07-09T13:27:01;29.10;30.96
71082;SHT31;58740;50.672;18.690;2023-07-09T13:29:30;29.10;31.20
71082;SHT31;58740;50.672;18.690;2023-07-09T13:31:59;29.08;31.05
71082;SHT31;58740;50.672;18.690;2023-07-09T13:34:28;29.07;31.01
71082;SHT31;58740;50.672;18.690;2023-07-09T13:37:01;29.06;30.39
71082;SHT31;58740;50.672;18.690;2023-07-09T13:39:29;29.05;29.50
71082;SHT31;58740;50.672;18.690;2023-07-09T13:41:57;29.05;28.97
71082;SHT31;58740;50.672;18.690;2023-07-09T13:44:26;29.05;28.97
71082;SHT31;58740;50.672;18.690;2023-07-09T13:46:58;29.03;28.27
71082;SHT31;58740;50.672;18.690;2023-07-09T13:49:26;29.03;28.47
71082;SHT31;58740;50.672;18.690;2023-07-09T13:51:57;29.04;28.96
71082;SHT31;58740;50.672;18.690;2023-07-09T13:54:29;29.05;28.77
71082;SHT31;58740;50.672;18.690;2023-07-09T13:57:07;29.06;28.98
71082;SHT31;58740;50.672;18.690;2023-07-09T13:59:42;29.06;29.21
71082;SHT31;58740;50.672;18.690;2023-07-09T14:02:21;29.06;29.69
71082;SHT31;58740;50.672;18.690;2023-07-09T14:05:01;29.05;29.23
71082;SHT31;58740;50.672;18.690;2023-07-09T14:07:34;29.02;28.28
71082;SHT31;58740;50.672;18.690;2023-07-09T14:10:05;29.02;28.18
71082;SHT31;58740;50.672;18.690;2023-07-09T14:12:39;29.03;28.16
71082;SHT31;58740;50.672;18.690;2023-07-09T14:15:13;29.04;28.57
71082;SHT31;58740;50.672;18.690;2023-07-09T14:17:47;29.04;29.06
71082;SHT31;58740;50.672;18.690;2023-07-09T14:20:15;29.02;29.08
71082;SHT31;58740;50.672;18.690;2023-07-09T14:22:45;28.99;28.85
71082;SHT31;58740;50.672;18.690;2023-07-09T14:25:23;28.96;29.14
71082;SHT31;58740;50.672;18.690;2023-07-09T14:27:53;28.94;28.97
71082;SHT31;58740;50.672;18.690;2023-07-09T14:30:22;28.93;29.13
71082;SHT31;58740;50.672;18.690;2023-07-09T14:32:55;28.92;28.68
71082;SHT31;58740;50.672;18.690;2023-07-09T14:35:25;28.90;28.36
71082;SHT31;58740;50.672;18.690;2023-07-09T14:37:54;28.92;28.63
71082;SHT31;58740;50.672;18.690;2023-07-09T14:40:22;28.94;28.79
71082;SHT31;58740;50.672;18.690;2023-07-09T14:42:51;28.95;28.72
71082;SHT31;58740;50.672;18.690;2023-07-09T14:45:19;28.93;28.58
71082;SHT31;58740;50.672;18.690;2023-07-09T14:47:53;28.92;29.00
71082;SHT31;58740;50.672;18.690;2023-07-09T14:50:22;28.89;29.09
71082;SHT31;58740;50.672;18.690;2023-07-09T14:52:50;28.89;28.78
71082;SHT31;58740;50.672;18.690;2023-07-09T14:55:19;28.90;29.71
71082;SHT31;58740;50.672;18.690;2023-07-09T14:57:52;28.89;29.44
71082;SHT31;58740;50.672;18.690;2023-07-09T15:00:20;28.87;29.81
71082;SHT31;58740;50.672;18.690;2023-07-09T15:02:51;28.86;29.45
71082;SHT31;58740;50.672;18.690;2023-07-09T15:05:22;28.84;29.69
71082;SHT31;58740;50.672;18.690;2023-07-09T15:07:52;28.82;29.62
71082;SHT31;58740;50.672;18.690;2023-07-09T15:10:22;28.79;29.41
71082;SHT31;58740;50.672;18.690;2023-07-09T15:12:54;28.79;29.55
71082;SHT31;58740;50.672;18.690;2023-07-09T15:15:27;28.78;29.14
71082;SHT31;58740;50.672;18.690;2023-07-09T15:18:03;28.75;29.12
71082;SHT31;58740;50.672;18.690;2023-07-09T15:20:39;28.74;29.29
71082;SHT31;58740;50.672;18.690;2023-07-09T15:23:14;28.71;28.67
71082;SHT31;58740;50.672;18.690;2023-07-09T15:25:42;28.69;28.65
71082;SHT31;58740;50.672;18.690;2023-07-09T15:28:10;28.68;29.36
71082;SHT31;58740;50.672;18.690;2023-07-09T15:30:38;28.66;29.44
71082;SHT31;58740;50.672;18.690;2023-07-09T15:33:09;28.65;29.34
71082;SHT31;58740;50.672;18.690;2023-07-09T15:35:45;28.60;29.24
71082;SHT31;58740;50.672;18.690;2023-07-09T15:40:47;28.56;29.47
71082;SHT31;58740;50.672;18.690;2023-07-09T15:43:16;28.56;29.36
71082;SHT31;58740;50.672;18.690;2023-07-09T15:45:45;28.53;29.28
71082;SHT31;58740;50.672;18.690;2023-07-09T15:48:22;28.50;29.15
71082;SHT31;58740;50.672;18.690;2023-07-09T15:50:54;28.48;29.94
71082;SHT31;58740;50.672;18.690;2023-07-09T15:53:22;28.44;30.18
71082;SHT31;58740;50.672;18.690;2023-07-09T15:55:50;28.43;30.85
71082;SHT31;58740;50.672;18.690;2023-07-09T15:58:30;28.43;31.41
71082;SHT31;58740;50.672;18.690;2023-07-09T16:01:10;28.41;31.86
71082;SHT31;58740;50.672;18.690;2023-07-09T16:03:47;28.39;32.17
71082;SHT31;58740;50.672;18.690;2023-07-09T16:06:22;28.34;32.10
71082;SHT31;58740;50.672;18.690;2023-07-09T16:08:49;28.32;32.06
71082;SHT31;58740;50.672;18.690;2023-07-09T16:11:18;28.30;32.88
71082;SHT31;58740;50.672;18.690;2023-07-09T16:13:50;28.26;32.58
71082;SHT31;58740;50.672;18.690;2023-07-09T16:16:22;28.23;32.96
71082;SHT31;58740;50.672;18.690;2023-07-09T16:18:51;28.20;33.10
71082;SHT31;58740;50.672;18.690;2023-07-09T16:21:26;28.18;33.08
71082;SHT31;58740;50.672;18.690;2023-07-09T16:23:58;28.16;32.75
71082;SHT31;58740;50.672;18.690;2023-07-09T16:26:31;28.15;33.46
71082;SHT31;58740;50.672;18.690;2023-07-09T16:28:59;28.12;33.39
71082;SHT31;58740;50.672;18.690;2023-07-09T16:31:27;28.08;33.01
71082;SHT31;58740;50.672;18.690;2023-07-09T16:33:55;28.06;33.12
71082;SHT31;58740;50.672;18.690;2023-07-09T16:36:22;28.05;33.03